sensor_id;sensor_type;location;lat;lon;timestamp;P1;durP1;ratioP1;P2;durP2;ratioP2
80578;SDS011;69939;52.402;6.608;2023-08-21T00:03:32;5.28;;;2.42;;
80578;SDS011;69939;52.402;6.608;2023-08-21T00:06:01;4.13;;;2.50;;
80578;SDS011;69939;52.402;6.608;2023-08-21T00:08:31;4.70;;;2.78;;
80578;SDS011;69939;52.402;6.608;2023-08-21T00:13:34;2.25;;;2.00;;
80578;SDS011;69939;52.402;6.608;2023-08-21T00:16:04;5.68;;;2.30;;
80578;SDS011;69939;52.402;6.608;2023-08-21T00:18:33;4.78;;;1.92;;
80578;SDS011;69939;52.402;6.608;2023-08-21T00:23:31;1.98;;;1.60;;
80578;SDS011;69939;52.402;6.608;2023-08-21T00:28:32;3.58;;;2.17;;
80578;SDS011;69939;52.402;6.608;2023-08-21T00:31:01;5.38;;;2.40;;
80578;SDS011;69939;52.402;6.608;2023-08-21T00:33:31;4.03;;;2.33;;
80578;SDS011;69939;52.402;6.608;2023-08-21T00:36:02;4.30;;;2.42;;
80578;SDS011;69939;52.402;6.608;2023-08-21T00:38:32;4.28;;;2.30;;
80578;SDS011;69939;52.402;6.608;2023-08-21T00:41:01;4.00;;;2.58;;
80578;SDS011;69939;52.402;6.608;2023-08-21T00:43:35;3.42;;;2.60;;
80578;SDS011;69939;52.402;6.608;2023-08-21T00:46:04;4.90;;;2.05;;
80578;SDS011;69939;52.402;6.608;2023-08-21T00:48:35;4.57;;;2.80;;
80578;SDS011;69939;52.402;6.608;2023-08-21T00:51:05;4.90;;;2.38;;
80578;SDS011;69939;52.402;6.608;2023-08-21T00:53:36;5.18;;;2.90;;
80578;SDS011;69939;52.402;6.608;2023-08-21T00:56:05;4.55;;;2.60;;
80578;SDS011;69939;52.402;6.608;2023-08-21T00:58:38;6.88;;;2.97;;
80578;SDS011;69939;52.402;6.608;2023-08-21T01:01:08;5.75;;;2.45;;
80578;SDS011;69939;52.402;6.608;2023-08-21T01:03:37;3.33;;;3.03;;
80578;SDS011;69939;52.402;6.608;2023-08-21T01:06:06;4.50;;;2.78;;
80578;SDS011;69939;52.402;6.608;2023-08-21T01:08:39;4.07;;;2.95;;
80578;SDS011;69939;52.402;6.608;2023-08-21T01:11:21;7.22;;;2.88;;
80578;SDS011;69939;52.402;6.608;2023-08-21T01:14:03;4.50;;;2.80;;
80578;SDS011;69939;52.402;6.608;2023-08-21T01:16:43;4.78;;;2.50;;
80578;SDS011;69939;52.402;6.608;2023-08-21T01:19:18;3.17;;;2.60;;
80578;SDS011;69939;52.402;6.608;2023-08-21T01:21:59;5.90;;;2.72;;
80578;SDS011;69939;52.402;6.608;2023-08-21T01:24:33;4.25;;;2.65;;
80578;SDS011;69939;52.402;6.608;2023-08-21T01:27:02;5.85;;;2.80;;
80578;SDS011;69939;52.402;6.608;2023-08-21T01:29:32;2.88;;;2.50;;
80578;SDS011;69939;52.402;6.608;2023-08-21T01:32:04;6.43;;;2.92;;
80578;SDS011;69939;52.402;6.608;2023-08-21T01:34:38;4.70;;;2.88;;
80578;SDS011;69939;52.402;6.608;2023-08-21T01:37:09;6.20;;;2.65;;
80578;SDS011;69939;52.402;6.608;2023-08-21T01:39:42;3.42;;;2.90;;
80578;SDS011;69939;52.402;6.608;2023-08-21T01:42:12;3.28;;;2.50;;
80578;SDS011;69939;52.402;6.608;2023-08-21T01:44:41;3.80;;;2.40;;
80578;SDS011;69939;52.402;6.608;2023-08-21T01:47:11;4.68;;;2.42;;
80578;SDS011;69939;52.402;6.608;2023-08-21T01:49:41;6.50;;;3.83;;
80578;SDS011;69939;52.402;6.608;2023-08-21T01:52:10;5.07;;;3.17;;
80578;SDS011;69939;52.402;6.608;2023-08-21T01:54:39;4.38;;;2.80;;
80578;SDS011;69939;52.402;6.608;2023-08-21T01:57:11;6.47;;;2.33;;
80578;SDS011;69939;52.402;6.608;2023-08-21T01:59:40;4.45;;;2.92;;
80578;SDS011;69939;52.402;6.608;2023-08-21T02:02:09;5.60;;;2.92;;
80578;SDS011;69939;52.402;6.608;2023-08-21T02:04:38;4.03;;;2.42;;
80578;SDS011;69939;52.402;6.608;2023-08-21T02:07:07;7.78;;;3.15;;
80578;SDS011;69939;52.402;6.608;2023-08-21T02:09:36;6.07;;;3.00;;
80578;SDS011;69939;52.402;6.608;2023-08-21T02:12:06;4.80;;;2.63;;
80578;SDS011;69939;52.402;6.608;2023-08-21T02:14:38;5.97;;;2.95;;
80578;SDS011;69939;52.402;6.608;2023-08-21T02:17:07;5.10;;;2.88;;
80578;SDS011;69939;52.402;6.608;2023-08-21T02:22:05;6.72;;;3.28;;
80578;SDS011;69939;52.402;6.608;2023-08-21T02:24:34;4.15;;;2.90;;
80578;SDS011;69939;52.402;6.608;2023-08-21T02:27:04;6.25;;;3.22;;
80578;SDS011;69939;52.402;6.608;2023-08-21T02:29:33;5.68;;;2.75;;
80578;SDS011;69939;52.402;6.608;2023-08-21T02:32:05;5.32;;;3.10;;
80578;SDS011;69939;52.402;6.608;2023-08-21T02:34:34;3.63;;;2.90;;
80578;SDS011;69939;52.402;6.608;2023-08-21T02:37:04;2.38;;;2.08;;
80578;SDS011;69939;52.402;6.608;2023-08-21T02:42:02;6.00;;;3.10;;
80578;SDS011;69939;52.402;6.608;2023-08-21T02:44:32;4.85;;;2.78;;
80578;SDS011;69939;52.402;6.608;2023-08-21T02:47:01;5.35;;;3.25;;
80578;SDS011;69939;52.402;6.608;2023-08-21T02:49:33;5.60;;;4.00;;
80578;SDS011;69939;52.402;6.608;2023-08-21T02:52:02;4.97;;;3.60;;
80578;SDS011;69939;52.402;6.608;2023-08-21T02:54:32;4.10;;;2.55;;
80578;SDS011;69939;52.402;6.608;2023-08-21T02:57:01;5.00;;;3.65;;
80578;SDS011;69939;52.402;6.608;2023-08-21T02:59:33;4.03;;;3.55;;
80578;SDS011;69939;52.402;6.608;2023-08-21T03:02:02;6.15;;;3.08;;
80578;SDS011;69939;52.402;6.608;2023-08-21T03:04:35;3.72;;;3.33;;
80578;SDS011;69939;52.402;6.608;2023-08-21T03:07:04;5.60;;;3.42;;
80578;SDS011;69939;52.402;6.608;2023-08-21T03:09:33;4.95;;;3.10;;
80578;SDS011;69939;52.402;6.608;2023-08-21T03:14:32;8.95;;;4.10;;
80578;SDS011;69939;52.402;6.608;2023-08-21T03:17:02;9.05;;;3.70;;
80578;SDS011;69939;52.402;6.608;2023-08-21T03:19:31;7.75;;;3.60;;
80578;SDS011;69939;52.402;6.608;2023-08-21T03:22:03;4.57;;;3.50;;
80578;SDS011;69939;52.402;6.608;2023-08-21T03:24:33;5.55;;;3.55;;
80578;SDS011;69939;52.402;6.608;2023-08-21T03:27:02;7.00;;;3.83;;
80578;SDS011;69939;52.402;6.608;2023-08-21T03:29:32;4.70;;;3.78;;
80578;SDS011;69939;52.402;6.608;2023-08-21T03:32:01;4.38;;;3.85;;
80578;SDS011;69939;52.402;6.608;2023-08-21T03:34:30;7.20;;;3.70;;
80578;SDS011;69939;52.402;6.608;2023-08-21T03:37:02;4.63;;;3.72;;
80578;SDS011;69939;52.402;6.608;2023-08-21T03:39:31;6.85;;;4.53;;
80578;SDS011;69939;52.402;6.608;2023-08-21T03:42:01;6.25;;;4.05;;
80578;SDS011;69939;52.402;6.608;2023-08-21T03:44:31;7.80;;;3.55;;
80578;SDS011;69939;52.402;6.608;2023-08-21T03:47:03;7.10;;;3.95;;
80578;SDS011;69939;52.402;6.608;2023-08-21T03:49:33;5.55;;;4.18;;
80578;SDS011;69939;52.402;6.608;2023-08-21T03:54:35;6.97;;;4.28;;
80578;SDS011;69939;52.402;6.608;2023-08-21T03:57:04;6.22;;;4.20;;
80578;SDS011;69939;52.402;6.608;2023-08-21T03:59:33;9.27;;;4.28;;
80578;SDS011;69939;52.402;6.608;2023-08-21T04:02:02;6.53;;;4.28;;
80578;SDS011;69939;52.402;6.608;2023-08-21T04:04:32;5.65;;;4.38;;
80578;SDS011;69939;52.402;6.608;2023-08-21T04:07:01;5.55;;;4.28;;
80578;SDS011;69939;52.402;6.608;2023-08-21T04:09:33;4.75;;;3.70;;
80578;SDS011;69939;52.402;6.608;2023-08-21T04:12:02;5.70;;;4.63;;
80578;SDS011;69939;52.402;6.608;2023-08-21T04:14:32;5.97;;;3.85;;
80578;SDS011;69939;52.402;6.608;2023-08-21T04:17:01;7.03;;;3.78;;
80578;SDS011;69939;52.402;6.608;2023-08-21T04:19:31;7.32;;;3.72;;
80578;SDS011;69939;52.402;6.608;2023-08-21T04:22:06;6.72;;;4.13;;
80578;SDS011;69939;52.402;6.608;2023-08-21T04:24:35;6.60;;;3.80;;
80578;SDS011;69939;52.402;6.608;2023-08-21T04:27:04;3.22;;;2.78;;
80578;SDS011;69939;52.402;6.608;2023-08-21T04:29:34;4.55;;;3.20;;
80578;SDS011;69939;52.402;6.608;2023-08-21T04:32:05;3.03;;;2.60;;
80578;SDS011;69939;52.402;6.608;2023-08-21T04:34:34;6.60;;;3.40;;
80578;SDS011;69939;52.402;6.608;2023-08-21T04:37:06;8.57;;;3.75;;
80578;SDS011;69939;52.402;6.608;2023-08-21T04:39:35;5.22;;;3.67;;
80578;SDS011;69939;52.402;6.608;2023-08-21T04:42:04;4.72;;;3.60;;
80578;SDS011;69939;52.402;6.608;2023-08-21T04:44:34;8.75;;;4.00;;
80578;SDS011;69939;52.402;6.608;2023-08-21T04:47:18;7.03;;;4.10;;
80578;SDS011;69939;52.402;6.608;2023-08-21T04:49:51;9.15;;;4.93;;
80578;SDS011;69939;52.402;6.608;2023-08-21T04:52:24;6.97;;;4.50;;
80578;SDS011;69939;52.402;6.608;2023-08-21T04:54:54;6.85;;;4.50;;
80578;SDS011;69939;52.402;6.608;2023-08-21T04:57:23;5.72;;;4.40;;
80578;SDS011;69939;52.402;6.608;2023-08-21T04:59:55;7.13;;;4.53;;
80578;SDS011;69939;52.402;6.608;2023-08-21T05:02:24;5.30;;;4.43;;
80578;SDS011;69939;52.402;6.608;2023-08-21T05:04:56;5.03;;;3.47;;
80578;SDS011;69939;52.402;6.608;2023-08-21T05:07:29;9.38;;;4.97;;
80578;SDS011;69939;52.402;6.608;2023-08-21T05:10:01;7.13;;;5.47;;
80578;SDS011;69939;52.402;6.608;2023-08-21T05:12:31;6.35;;;4.47;;
80578;SDS011;69939;52.402;6.608;2023-08-21T05:15:03;4.82;;;4.05;;
80578;SDS011;69939;52.402;6.608;2023-08-21T05:17:33;5.72;;;4.50;;
80578;SDS011;69939;52.402;6.608;2023-08-21T05:20:05;5.15;;;4.03;;
80578;SDS011;69939;52.402;6.608;2023-08-21T05:22:41;5.30;;;3.90;;
80578;SDS011;69939;52.402;6.608;2023-08-21T05:25:10;7.72;;;4.30;;
80578;SDS011;69939;52.402;6.608;2023-08-21T05:27:40;6.55;;;4.03;;
80578;SDS011;69939;52.402;6.608;2023-08-21T05:30:09;7.53;;;4.30;;
80578;SDS011;69939;52.402;6.608;2023-08-21T05:32:40;10.35;;;4.95;;
80578;SDS011;69939;52.402;6.608;2023-08-21T05:35:09;6.50;;;4.53;;
80578;SDS011;69939;52.402;6.608;2023-08-21T05:37:41;6.57;;;4.13;;
80578;SDS011;69939;52.402;6.608;2023-08-21T05:40:10;5.40;;;4.10;;
80578;SDS011;69939;52.402;6.608;2023-08-21T05:42:40;6.30;;;3.30;;
80578;SDS011;69939;52.402;6.608;2023-08-21T05:45:09;5.85;;;4.15;;
80578;SDS011;69939;52.402;6.608;2023-08-21T05:47:38;5.55;;;4.80;;
80578;SDS011;69939;52.402;6.608;2023-08-21T05:52:37;6.55;;;4.63;;
80578;SDS011;69939;52.402;6.608;2023-08-21T05:55:09;7.32;;;4.97;;
80578;SDS011;69939;52.402;6.608;2023-08-21T05:57:38;4.57;;;3.50;;
80578;SDS011;69939;52.402;6.608;2023-08-21T06:00:08;6.72;;;4.72;;
80578;SDS011;69939;52.402;6.608;2023-08-21T06:02:39;6.00;;;3.85;;
80578;SDS011;69939;52.402;6.608;2023-08-21T06:05:09;6.90;;;4.60;;
80578;SDS011;69939;52.402;6.608;2023-08-21T06:07:41;7.68;;;4.13;;
80578;SDS011;69939;52.402;6.608;2023-08-21T06:10:10;7.00;;;4.55;;
80578;SDS011;69939;52.402;6.608;2023-08-21T06:12:40;9.55;;;4.60;;
80578;SDS011;69939;52.402;6.608;2023-08-21T06:15:21;9.32;;;4.35;;
80578;SDS011;69939;52.402;6.608;2023-08-21T06:17:50;8.93;;;4.60;;
80578;SDS011;69939;52.402;6.608;2023-08-21T06:22:49;8.32;;;4.03;;
80578;SDS011;69939;52.402;6.608;2023-08-21T06:25:18;6.05;;;4.22;;
80578;SDS011;69939;52.402;6.608;2023-08-21T06:27:47;6.95;;;4.28;;
80578;SDS011;69939;52.402;6.608;2023-08-21T06:30:16;6.60;;;3.50;;
80578;SDS011;69939;52.402;6.608;2023-08-21T06:35:17;5.43;;;2.90;;
80578;SDS011;69939;52.402;6.608;2023-08-21T06:37:49;4.75;;;2.90;;
80578;SDS011;69939;52.402;6.608;2023-08-21T06:40:19;7.50;;;3.35;;
80578;SDS011;69939;52.402;6.608;2023-08-21T06:42:48;6.35;;;2.67;;
80578;SDS011;69939;52.402;6.608;2023-08-21T06:45:18;3.40;;;2.67;;
80578;SDS011;69939;52.402;6.608;2023-08-21T06:47:50;7.00;;;3.33;;
80578;SDS011;69939;52.402;6.608;2023-08-21T06:50:19;6.53;;;3.75;;
80578;SDS011;69939;52.402;6.608;2023-08-21T06:52:48;4.70;;;3.42;;
80578;SDS011;69939;52.402;6.608;2023-08-21T06:55:18;4.22;;;2.90;;
80578;SDS011;69939;52.402;6.608;2023-08-21T06:57:47;6.28;;;3.45;;
80578;SDS011;69939;52.402;6.608;2023-08-21T07:00:16;3.10;;;2.35;;
80578;SDS011;69939;52.402;6.608;2023-08-21T07:02:45;4.93;;;3.10;;
80578;SDS011;69939;52.402;6.608;2023-08-21T07:05:17;9.65;;;4.40;;
80578;SDS011;69939;52.402;6.608;2023-08-21T07:07:46;4.00;;;3.60;;
80578;SDS011;69939;52.402;6.608;2023-08-21T07:10:16;6.85;;;4.65;;
80578;SDS011;69939;52.402;6.608;2023-08-21T07:12:45;4.50;;;3.35;;
80578;SDS011;69939;52.402;6.608;2023-08-21T07:15:15;6.82;;;5.22;;
80578;SDS011;69939;52.402;6.608;2023-08-21T07:17:44;4.80;;;3.40;;
80578;SDS011;69939;52.402;6.608;2023-08-21T07:20:13;5.38;;;3.53;;
80578;SDS011;69939;52.402;6.608;2023-08-21T07:22:45;6.72;;;4.65;;
80578;SDS011;69939;52.402;6.608;2023-08-21T07:25:14;6.25;;;3.83;;
80578;SDS011;69939;52.402;6.608;2023-08-21T07:27:44;5.95;;;3.58;;
80578;SDS011;69939;52.402;6.608;2023-08-21T07:30:16;8.35;;;4.20;;
80578;SDS011;69939;52.402;6.608;2023-08-21T07:32:45;6.30;;;4.28;;
80578;SDS011;69939;52.402;6.608;2023-08-21T07:35:17;4.85;;;3.30;;
80578;SDS011;69939;52.402;6.608;2023-08-21T07:37:47;4.47;;;3.35;;
80578;SDS011;69939;52.402;6.608;2023-08-21T07:40:16;5.53;;;3.38;;
80578;SDS011;69939;52.402;6.608;2023-08-21T07:42:45;5.75;;;3.75;;
80578;SDS011;69939;52.402;6.608;2023-08-21T07:45:15;3.50;;;2.25;;
80578;SDS011;69939;52.402;6.608;2023-08-21T07:47:44;3.92;;;3.00;;
80578;SDS011;69939;52.402;6.608;2023-08-21T07:50:14;4.30;;;3.22;;
80578;SDS011;69939;52.402;6.608;2023-08-21T07:52:46;5.88;;;3.28;;
80578;SDS011;69939;52.402;6.608;2023-08-21T07:55:15;5.25;;;3.90;;
80578;SDS011;69939;52.402;6.608;2023-08-21T07:57:44;8.10;;;3.95;;
80578;SDS011;69939;52.402;6.608;2023-08-21T08:00:14;3.47;;;2.33;;
80578;SDS011;69939;52.402;6.608;2023-08-21T08:02:43;6.65;;;3.92;;
80578;SDS011;69939;52.402;6.608;2023-08-21T08:05:13;3.80;;;3.30;;
80578;SDS011;69939;52.402;6.608;2023-08-21T08:07:42;3.28;;;2.92;;
80578;SDS011;69939;52.402;6.608;2023-08-21T08:10:14;5.07;;;3.25;;
80578;SDS011;69939;52.402;6.608;2023-08-21T08:12:43;5.00;;;2.90;;
80578;SDS011;69939;52.402;6.608;2023-08-21T08:15:13;4.20;;;3.78;;
80578;SDS011;69939;52.402;6.608;2023-08-21T08:17:46;5.03;;;3.53;;
80578;SDS011;69939;52.402;6.608;2023-08-21T08:22:46;5.30;;;2.92;;
80578;SDS011;69939;52.402;6.608;2023-08-21T08:25:18;3.80;;;2.10;;
80578;SDS011;69939;52.402;6.608;2023-08-21T08:27:48;4.47;;;1.73;;
80578;SDS011;69939;52.402;6.608;2023-08-21T08:30:17;6.10;;;2.85;;
80578;SDS011;69939;52.402;6.608;2023-08-21T08:32:46;4.90;;;2.53;;
80578;SDS011;69939;52.402;6.608;2023-08-21T08:35:15;9.90;;;3.53;;
80578;SDS011;69939;52.402;6.608;2023-08-21T08:37:46;6.72;;;2.45;;
80578;SDS011;69939;52.402;6.608;2023-08-21T08:40:18;6.15;;;2.42;;
80578;SDS011;69939;52.402;6.608;2023-08-21T08:42:47;3.55;;;2.15;;
80578;SDS011;69939;52.402;6.608;2023-08-21T08:45:16;3.28;;;1.50;;
80578;SDS011;69939;52.402;6.608;2023-08-21T08:47:59;5.07;;;2.10;;
80578;SDS011;69939;52.402;6.608;2023-08-21T08:50:33;7.05;;;2.50;;
80578;SDS011;69939;52.402;6.608;2023-08-21T08:53:04;13.98;;;2.58;;
80578;SDS011;69939;52.402;6.608;2023-08-21T08:55:38;4.28;;;1.77;;
80578;SDS011;69939;52.402;6.608;2023-08-21T08:58:10;3.72;;;1.58;;
80578;SDS011;69939;52.402;6.608;2023-08-21T09:00:39;3.72;;;1.73;;
80578;SDS011;69939;52.402;6.608;2023-08-21T09:03:09;3.28;;;1.92;;
80578;SDS011;69939;52.402;6.608;2023-08-21T09:05:40;4.10;;;2.00;;
80578;SDS011;69939;52.402;6.608;2023-08-21T09:08:10;5.13;;;2.20;;
80578;SDS011;69939;52.402;6.608;2023-08-21T09:10:43;6.60;;;2.15;;
80578;SDS011;69939;52.402;6.608;2023-08-21T09:13:13;2.85;;;1.73;;
80578;SDS011;69939;52.402;6.608;2023-08-21T09:15:45;4.00;;;1.70;;
80578;SDS011;69939;52.402;6.608;2023-08-21T09:18:16;2.00;;;1.42;;
80578;SDS011;69939;52.402;6.608;2023-08-21T09:20:45;4.18;;;1.80;;
80578;SDS011;69939;52.402;6.608;2023-08-21T09:23:16;5.07;;;2.17;;
80578;SDS011;69939;52.402;6.608;2023-08-21T09:25:49;3.53;;;1.55;;
80578;SDS011;69939;52.402;6.608;2023-08-21T09:28:19;2.40;;;1.33;;
80578;SDS011;69939;52.402;6.608;2023-08-21T09:30:50;3.35;;;1.55;;
80578;SDS011;69939;52.402;6.608;2023-08-21T09:33:23;3.38;;;1.60;;
80578;SDS011;69939;52.402;6.608;2023-08-21T09:35:53;3.30;;;1.50;;
80578;SDS011;69939;52.402;6.608;2023-08-21T09:38:25;2.50;;;1.27;;
80578;SDS011;69939;52.402;6.608;2023-08-21T09:40:57;2.22;;;1.40;;
80578;SDS011;69939;52.402;6.608;2023-08-21T09:43:28;4.07;;;1.92;;
80578;SDS011;69939;52.402;6.608;2023-08-21T09:45:58;4.25;;;1.50;;
80578;SDS011;69939;52.402;6.608;2023-08-21T09:48:28;2.30;;;1.10;;
80578;SDS011;69939;52.402;6.608;2023-08-21T09:51:01;1.95;;;0.82;;
80578;SDS011;69939;52.402;6.608;2023-08-21T09:53:32;2.03;;;0.90;;
80578;SDS011;69939;52.402;6.608;2023-08-21T09:56:04;3.58;;;1.00;;
80578;SDS011;69939;52.402;6.608;2023-08-21T09:58:34;3.28;;;1.55;;
80578;SDS011;69939;52.402;6.608;2023-08-21T10:01:05;3.35;;;1.50;;
80578;SDS011;69939;52.402;6.608;2023-08-21T10:03:39;4.00;;;1.60;;
80578;SDS011;69939;52.402;6.608;2023-08-21T10:06:12;3.15;;;2.13;;
80578;SDS011;69939;52.402;6.608;2023-08-21T10:08:46;2.30;;;1.50;;
80578;SDS011;69939;52.402;6.608;2023-08-21T10:11:25;5.53;;;1.52;;
80578;SDS011;69939;52.402;6.608;2023-08-21T10:13:57;3.00;;;1.30;;
80578;SDS011;69939;52.402;6.608;2023-08-21T10:16:27;2.60;;;1.38;;
80578;SDS011;69939;52.402;6.608;2023-08-21T10:18:57;2.67;;;1.70;;
80578;SDS011;69939;52.402;6.608;2023-08-21T10:21:34;3.20;;;1.58;;
80578;SDS011;69939;52.402;6.608;2023-08-21T10:24:04;2.85;;;1.10;;
80578;SDS011;69939;52.402;6.608;2023-08-21T10:26:40;3.13;;;1.30;;
80578;SDS011;69939;52.402;6.608;2023-08-21T10:29:09;2.58;;;1.58;;
80578;SDS011;69939;52.402;6.608;2023-08-21T10:31:38;2.28;;;1.10;;
80578;SDS011;69939;52.402;6.608;2023-08-21T10:34:10;3.47;;;1.88;;
80578;SDS011;69939;52.402;6.608;2023-08-21T10:39:38;3.53;;;1.33;;
80578;SDS011;69939;52.402;6.608;2023-08-21T10:45:10;1.98;;;1.30;;
80578;SDS011;69939;52.402;6.608;2023-08-21T10:47:44;2.58;;;1.52;;
80578;SDS011;69939;52.402;6.608;2023-08-21T10:50:15;3.88;;;1.63;;
80578;SDS011;69939;52.402;6.608;2023-08-21T10:52:46;4.18;;;1.30;;
80578;SDS011;69939;52.402;6.608;2023-08-21T10:55:22;5.70;;;1.55;;
80578;SDS011;69939;52.402;6.608;2023-08-21T10:57:54;4.32;;;1.40;;
80578;SDS011;69939;52.402;6.608;2023-08-21T11:00:23;2.97;;;1.13;;
80578;SDS011;69939;52.402;6.608;2023-08-21T11:02:52;2.95;;;1.50;;
80578;SDS011;69939;52.402;6.608;2023-08-21T11:05:22;5.75;;;1.98;;
80578;SDS011;69939;52.402;6.608;2023-08-21T11:07:51;3.33;;;1.77;;
80578;SDS011;69939;52.402;6.608;2023-08-21T11:10:21;3.47;;;1.35;;
80578;SDS011;69939;52.402;6.608;2023-08-21T11:12:58;2.65;;;1.73;;
80578;SDS011;69939;52.402;6.608;2023-08-21T11:15:28;3.88;;;1.40;;
80578;SDS011;69939;52.402;6.608;2023-08-21T11:18:01;3.13;;;1.42;;
80578;SDS011;69939;52.402;6.608;2023-08-21T11:20:33;2.80;;;1.50;;
80578;SDS011;69939;52.402;6.608;2023-08-21T11:23:04;2.15;;;1.70;;
80578;SDS011;69939;52.402;6.608;2023-08-21T11:25:35;2.25;;;1.50;;
80578;SDS011;69939;52.402;6.608;2023-08-21T11:28:12;3.22;;;1.55;;
80578;SDS011;69939;52.402;6.608;2023-08-21T11:30:46;3.40;;;1.58;;
80578;SDS011;69939;52.402;6.608;2023-08-21T11:33:15;2.67;;;1.80;;
80578;SDS011;69939;52.402;6.608;2023-08-21T11:35:45;4.32;;;2.13;;
80578;SDS011;69939;52.402;6.608;2023-08-21T11:38:14;4.43;;;1.88;;
80578;SDS011;69939;52.402;6.608;2023-08-21T11:40:52;2.67;;;1.20;;
80578;SDS011;69939;52.402;6.608;2023-08-21T11:43:36;4.00;;;2.60;;
80578;SDS011;69939;52.402;6.608;2023-08-21T11:46:07;3.63;;;1.73;;
80578;SDS011;69939;52.402;6.608;2023-08-21T11:48:39;3.78;;;1.48;;
80578;SDS011;69939;52.402;6.608;2023-08-21T11:51:10;4.38;;;2.10;;
80578;SDS011;69939;52.402;6.608;2023-08-21T11:53:40;2.45;;;1.33;;
80578;SDS011;69939;52.402;6.608;2023-08-21T11:56:11;2.53;;;1.60;;
80578;SDS011;69939;52.402;6.608;2023-08-21T11:58:44;3.22;;;1.33;;
80578;SDS011;69939;52.402;6.608;2023-08-21T12:03:45;3.25;;;1.98;;
80578;SDS011;69939;52.402;6.608;2023-08-21T12:06:19;3.25;;;1.35;;
80578;SDS011;69939;52.402;6.608;2023-08-21T12:08:50;2.92;;;1.25;;
80578;SDS011;69939;52.402;6.608;2023-08-21T12:11:20;2.47;;;1.52;;
80578;SDS011;69939;52.402;6.608;2023-08-21T12:13:52;3.20;;;1.60;;
80578;SDS011;69939;52.402;6.608;2023-08-21T12:16:21;4.68;;;1.40;;
80578;SDS011;69939;52.402;6.608;2023-08-21T12:18:51;3.15;;;1.42;;
80578;SDS011;69939;52.402;6.608;2023-08-21T12:21:22;2.28;;;1.13;;
80578;SDS011;69939;52.402;6.608;2023-08-21T12:23:51;2.15;;;1.35;;
80578;SDS011;69939;52.402;6.608;2023-08-21T12:26:20;1.73;;;1.48;;
80578;SDS011;69939;52.402;6.608;2023-08-21T12:28:52;1.65;;;1.00;;
80578;SDS011;69939;52.402;6.608;2023-08-21T12:31:21;3.10;;;1.83;;
80578;SDS011;69939;52.402;6.608;2023-08-21T12:33:50;3.15;;;1.52;;
80578;SDS011;69939;52.402;6.608;2023-08-21T12:36:20;3.33;;;1.48;;
80578;SDS011;69939;52.402;6.608;2023-08-21T12:38:49;3.20;;;0.90;;
80578;SDS011;69939;52.402;6.608;2023-08-21T12:41:18;3.35;;;1.48;;
80578;SDS011;69939;52.402;6.608;2023-08-21T12:43:47;1.52;;;1.40;;
80578;SDS011;69939;52.402;6.608;2023-08-21T12:46:19;2.43;;;1.23;;
80578;SDS011;69939;52.402;6.608;2023-08-21T12:48:48;2.45;;;1.13;;
80578;SDS011;69939;52.402;6.608;2023-08-21T12:51:17;3.78;;;1.65;;
80578;SDS011;69939;52.402;6.608;2023-08-21T12:53:46;2.10;;;1.30;;
80578;SDS011;69939;52.402;6.608;2023-08-21T12:56:16;2.35;;;1.30;;
80578;SDS011;69939;52.402;6.608;2023-08-21T12:58:45;2.95;;;0.90;;
80578;SDS011;69939;52.402;6.608;2023-08-21T13:01:15;5.78;;;1.50;;
80578;SDS011;69939;52.402;6.608;2023-08-21T13:03:47;1.63;;;1.15;;
80578;SDS011;69939;52.402;6.608;2023-08-21T13:06:16;2.97;;;1.60;;
80578;SDS011;69939;52.402;6.608;2023-08-21T13:08:45;1.80;;;1.48;;
80578;SDS011;69939;52.402;6.608;2023-08-21T13:11:15;2.05;;;1.33;;
80578;SDS011;69939;52.402;6.608;2023-08-21T13:13:44;2.50;;;1.25;;
80578;SDS011;69939;52.402;6.608;2023-08-21T13:16:13;1.92;;;1.02;;
80578;SDS011;69939;52.402;6.608;2023-08-21T13:18:42;2.63;;;1.45;;
80578;SDS011;69939;52.402;6.608;2023-08-21T13:21:14;2.60;;;1.45;;
80578;SDS011;69939;52.402;6.608;2023-08-21T13:23:44;3.22;;;1.42;;
80578;SDS011;69939;52.402;6.608;2023-08-21T13:26:14;2.75;;;1.60;;
80578;SDS011;69939;52.402;6.608;2023-08-21T13:28:43;2.85;;;1.50;;
80578;SDS011;69939;52.402;6.608;2023-08-21T13:31:13;4.05;;;1.55;;
80578;SDS011;69939;52.402;6.608;2023-08-21T13:33:45;4.25;;;1.23;;
80578;SDS011;69939;52.402;6.608;2023-08-21T13:36:17;3.15;;;1.52;;
80578;SDS011;69939;52.402;6.608;2023-08-21T13:38:46;3.30;;;1.23;;
80578;SDS011;69939;52.402;6.608;2023-08-21T13:41:16;3.22;;;1.23;;
80578;SDS011;69939;52.402;6.608;2023-08-21T13:43:45;1.60;;;1.50;;
80578;SDS011;69939;52.402;6.608;2023-08-21T13:46:14;4.07;;;1.65;;
80578;SDS011;69939;52.402;6.608;2023-08-21T13:48:43;2.88;;;1.65;;
80578;SDS011;69939;52.402;6.608;2023-08-21T13:51:12;2.25;;;1.52;;
80578;SDS011;69939;52.402;6.608;2023-08-21T13:53:44;2.38;;;1.80;;
80578;SDS011;69939;52.402;6.608;2023-08-21T13:56:13;1.95;;;1.55;;
80578;SDS011;69939;52.402;6.608;2023-08-21T13:58:42;2.63;;;2.10;;
80578;SDS011;69939;52.402;6.608;2023-08-21T14:01:12;3.22;;;1.40;;
80578;SDS011;69939;52.402;6.608;2023-08-21T14:03:41;1.55;;;1.40;;
80578;SDS011;69939;52.402;6.608;2023-08-21T14:06:11;2.25;;;1.27;;
80578;SDS011;69939;52.402;6.608;2023-08-21T14:08:45;4.30;;;2.08;;
80578;SDS011;69939;52.402;6.608;2023-08-21T14:11:15;2.50;;;1.10;;
80578;SDS011;69939;52.402;6.608;2023-08-21T14:13:46;2.40;;;1.77;;
80578;SDS011;69939;52.402;6.608;2023-08-21T14:16:15;3.63;;;1.55;;
80578;SDS011;69939;52.402;6.608;2023-08-21T14:18:44;3.67;;;1.58;;
80578;SDS011;69939;52.402;6.608;2023-08-21T14:21:14;4.20;;;2.17;;
80578;SDS011;69939;52.402;6.608;2023-08-21T14:23:46;3.47;;;2.13;;
80578;SDS011;69939;52.402;6.608;2023-08-21T14:26:15;3.90;;;1.88;;
80578;SDS011;69939;52.402;6.608;2023-08-21T14:28:44;4.68;;;2.20;;
80578;SDS011;69939;52.402;6.608;2023-08-21T14:31:16;2.33;;;1.90;;
80578;SDS011;69939;52.402;6.608;2023-08-21T14:33:48;2.80;;;1.90;;
80578;SDS011;69939;52.402;6.608;2023-08-21T14:36:17;3.28;;;1.80;;
80578;SDS011;69939;52.402;6.608;2023-08-21T14:38:49;3.25;;;1.48;;
80578;SDS011;69939;52.402;6.608;2023-08-21T14:41:20;2.28;;;1.70;;
80578;SDS011;69939;52.402;6.608;2023-08-21T14:43:51;3.15;;;1.60;;
80578;SDS011;69939;52.402;6.608;2023-08-21T14:46:20;3.28;;;1.80;;
80578;SDS011;69939;52.402;6.608;2023-08-21T14:48:50;3.17;;;1.80;;
80578;SDS011;69939;52.402;6.608;2023-08-21T14:51:19;1.83;;;1.60;;
80578;SDS011;69939;52.402;6.608;2023-08-21T14:53:50;4.75;;;1.40;;
80578;SDS011;69939;52.402;6.608;2023-08-21T14:56:20;2.35;;;1.63;;
80578;SDS011;69939;52.402;6.608;2023-08-21T14:58:49;3.00;;;1.65;;
80578;SDS011;69939;52.402;6.608;2023-08-21T15:01:18;2.45;;;1.83;;
80578;SDS011;69939;52.402;6.608;2023-08-21T15:03:47;4.03;;;2.15;;
80578;SDS011;69939;52.402;6.608;2023-08-21T15:06:17;3.70;;;1.80;;
80578;SDS011;69939;52.402;6.608;2023-08-21T15:08:46;3.38;;;2.13;;
80578;SDS011;69939;52.402;6.608;2023-08-21T15:11:17;3.17;;;1.25;;
80578;SDS011;69939;52.402;6.608;2023-08-21T15:13:46;2.45;;;2.00;;
80578;SDS011;69939;52.402;6.608;2023-08-21T15:16:15;5.07;;;1.98;;
80578;SDS011;69939;52.402;6.608;2023-08-21T15:18:45;1.85;;;1.35;;
80578;SDS011;69939;52.402;6.608;2023-08-21T15:21:17;2.25;;;1.65;;
80578;SDS011;69939;52.402;6.608;2023-08-21T15:23:46;5.05;;;2.25;;
80578;SDS011;69939;52.402;6.608;2023-08-21T15:26:18;2.47;;;1.80;;
80578;SDS011;69939;52.402;6.608;2023-08-21T15:28:48;1.65;;;1.55;;
80578;SDS011;69939;52.402;6.608;2023-08-21T15:31:17;2.33;;;1.75;;
80578;SDS011;69939;52.402;6.608;2023-08-21T15:33:46;2.05;;;1.50;;
80578;SDS011;69939;52.402;6.608;2023-08-21T15:36:16;4.90;;;1.95;;
80578;SDS011;69939;52.402;6.608;2023-08-21T15:38:45;3.35;;;1.88;;
80578;SDS011;69939;52.402;6.608;2023-08-21T15:41:14;2.53;;;1.77;;
80578;SDS011;69939;52.402;6.608;2023-08-21T15:43:46;3.05;;;1.75;;
80578;SDS011;69939;52.402;6.608;2023-08-21T15:46:17;2.85;;;1.90;;